Time,TemperatureF,DewpointF,PressureIn,WindDirection,WindDirectionDegrees,WindSpeedMPH,WindSpeedGustMPH,Humidity,HourlyPrecipIn,Conditions,Clouds,dailyrainin,SoftwareType,DateUTC
2013-01-16 00:00:00,40.0,39.5,30.02,WNW,289,3.0,4.0,98,0.00,,,0.00,Wunderground v.1.15,2013-01-16 06:00:00,
2013-01-16 00:05:00,39.7,39.2,30.02,WNW,296,4.0,4.0,98,0.00,,,0.00,Wunderground v.1.15,2013-01-16 06:05:00,
2013-01-16 00:10:00,39.6,39.1,30.03,NW,311,4.0,6.0,98,0.00,,,0.00,Wunderground v.1.15,2013-01-16 06:10:00,
2013-01-16 00:15:00,39.6,39.1,30.02,WNW,298,4.0,6.0,98,0.00,,,0.00,Wunderground v.1.15,2013-01-16 06:15:00,
2013-01-16 00:20:00,39.5,39.0,30.03,WNW,283,3.0,3.0,98,0.00,,,0.00,Wunderground v.1.15,2013-01-16 06:20:00,
2013-01-16 00:25:00,39.3,38.8,30.02,NW,315,3.0,8.0,98,0.00,,,0.00,Wunderground v.1.15,2013-01-16 06:25:00,
2013-01-16 00:35:00,38.8,38.3,30.03,West,276,5.0,5.0,98,0.00,,,0.00,Wunderground v.1.15,2013-01-16 06:35:00,
2013-01-16 00:40:00,38.6,38.1,30.03,WNW,288,4.0,4.0,98,0.00,,,0.00,Wunderground v.1.15,2013-01-16 06:40:00,
2013-01-16 00:45:00,38.5,38.0,30.03,WNW,290,4.0,7.0,98,0.00,,,0.00,Wunderground v.1.15,2013-01-16 06:45:00,
2013-01-16 00:55:00,38.1,37.6,30.02,NW,314,5.0,10.0,98,0.00,,,0.00,Wunderground v.1.15,2013-01-16 06:55:00,
2013-01-16 01:00:00,37.9,37.4,30.02,WNW,301,5.0,5.0,98,0.00,,,0.00,Wunderground v.1.15,2013-01-16 07:00:00,
2013-01-16 01:05:00,37.8,37.3,30.02,WNW,295,5.0,8.0,98,0.00,,,0.00,Wunderground v.1.15,2013-01-16 07:05:00,
2013-01-16 01:10:00,37.7,37.2,30.02,NW,314,5.0,6.0,98,0.00,,,0.00,Wunderground v.1.15,2013-01-16 07:10:00,
2013-01-16 01:15:00,37.7,37.2,30.02,WNW,293,5.0,7.0,98,0.00,,,0.00,Wunderground v.1.15,2013-01-16 07:15:00,
2013-01-16 01:20:00,37.7,37.2,30.02,NNW,331,4.0,5.0,98,0.00,,,0.00,Wunderground v.1.15,2013-01-16 07:20:00,
2013-01-16 01:25:00,37.7,37.2,30.03,WNW,300,4.0,5.0,98,0.00,,,0.00,Wunderground v.1.15,2013-01-16 07:25:00,
2013-01-16 01:30:00,37.7,37.2,30.03,NNW,333,4.0,4.0,98,0.00,,,0.00,Wunderground v.1.15,2013-01-16 07:30:00,
2013-01-16 01:35:00,37.6,37.1,30.03,NW,307,3.0,4.0,98,0.00,,,0.00,Wunderground v.1.15,2013-01-16 07:35:00,
2013-01-16 01:40:00,37.6,37.1,30.02,North,358,3.0,6.0,98,0.00,,,0.00,Wunderground v.1.15,2013-01-16 07:40:00,
2013-01-16 01:45:00,37.6,37.1,30.02,NW,315,4.0,6.0,98,0.00,,,0.00,Wunderground v.1.15,2013-01-16 07:45:00,
2013-01-16 01:55:00,37.3,36.8,30.02,NW,311,5.0,10.0,98,0.00,,,0.00,Wunderground v.1.15,2013-01-16 07:55:00,
2013-01-16 02:00:00,37.2,36.7,30.02,NW,322,5.0,5.0,98,0.00,,,0.00,Wunderground v.1.15,2013-01-16 08:00:00,
2013-01-16 02:05:00,37.2,36.7,30.02,NNW,337,4.0,5.0,98,0.00,,,0.00,Wunderground v.1.15,2013-01-16 08:05:00,
2013-01-16 02:10:00,37.2,36.7,30.02,NNW,344,4.0,4.0,98,0.00,,,0.00,Wunderground v.1.15,2013-01-16 08:10:00,
2013-01-16 02:15:00,37.2,36.7,30.02,NW,314,3.0,4.0,98,0.00,,,0.00,Wunderground v.1.15,2013-01-16 08:15:00,
2013-01-16 02:20:00,37.2,36.7,30.02,WNW,290,3.0,3.0,98,0.00,,,0.00,Wunderground v.1.15,2013-01-16 08:20:00,
2013-01-16 02:25:00,37.2,36.7,30.02,North,359,4.0,4.0,98,0.00,,,0.00,Wunderground v.1.15,2013-01-16 08:25:00,
2013-01-16 02:30:00,37.2,36.7,30.02,WNW,290,3.0,4.0,98,0.00,,,0.00,Wunderground v.1.15,2013-01-16 08:30:00,
2013-01-16 02:35:00,37.2,36.7,30.02,NW,304,2.0,4.0,98,0.00,,,0.00,Wunderground v.1.15,2013-01-16 08:35:00,
2013-01-16 02:40:00,37.2,36.7,30.02,WNW,293,2.0,3.0,98,0.00,,,0.00,Wunderground v.1.15,2013-01-16 08:40:00,
2013-01-16 02:45:00,37.2,36.7,30.02,WNW,301,3.0,4.0,98,0.00,,,0.00,Wunderground v.1.15,2013-01-16 08:45:00,
2013-01-16 02:50:00,37.2,36.7,30.02,WNW,287,3.0,3.0,98,0.00,,,0.00,Wunderground v.1.15,2013-01-16 08:50:00,
2013-01-16 02:55:00,37.2,36.7,30.02,WNW,285,3.0,3.0,98,0.00,,,0.00,Wunderground v.1.15,2013-01-16 08:55:00,
2013-01-16 03:00:00,37.1,36.6,30.02,NNW,328,3.0,3.0,98,0.00,,,0.00,Wunderground v.1.15,2013-01-16 09:00:00,
2013-01-16 03:05:00,37.1,36.3,30.02,NNW,330,3.0,3.0,97,0.00,,,0.00,Wunderground v.1.15,2013-01-16 09:05:00,
2013-01-16 03:10:00,37.2,36.4,30.02,NW,319,3.0,3.0,97,0.00,,,0.00,Wunderground v.1.15,2013-01-16 09:10:00,
2013-01-16 03:15:00,37.2,36.4,30.02,WNW,285,3.0,3.0,97,0.00,,,0.00,Wunderground v.1.15,2013-01-16 09:15:00,
2013-01-16 03:20:00,37.2,36.4,30.03,WNW,290,3.0,3.0,97,0.00,,,0.00,Wunderground v.1.15,2013-01-16 09:20:00,
2013-01-16 03:25:00,37.2,36.4,30.03,NW,310,3.0,3.0,97,0.00,,,0.00,Wunderground v.1.15,2013-01-16 09:25:00,
2013-01-16 03:30:00,37.3,36.5,30.04,NNW,330,2.0,3.0,97,0.00,,,0.00,Wunderground v.1.15,2013-01-16 09:30:00,
2013-01-16 03:35:00,37.3,36.5,30.04,WNW,295,2.0,3.0,97,0.00,,,0.00,Wunderground v.1.15,2013-01-16 09:35:00,
2013-01-16 03:45:00,37.3,36.5,30.03,WNW,294,3.0,3.0,97,0.00,,,0.00,Wunderground v.1.15,2013-01-16 09:45:00,
2013-01-16 03:50:00,37.3,36.5,30.04,NW,305,2.0,2.0,97,0.00,,,0.00,Wunderground v.1.15,2013-01-16 09:50:00,
2013-01-16 03:55:00,37.3,36.8,30.04,North,354,2.0,2.0,98,0.00,,,0.00,Wunderground v.1.15,2013-01-16 09:55:00,
2013-01-16 04:00:00,37.3,36.8,30.04,NNW,340,2.0,2.0,98,0.00,,,0.00,Wunderground v.1.15,2013-01-16 10:00:00,
2013-01-16 04:05:00,37.3,36.8,30.05,NW,319,2.0,2.0,98,0.00,,,0.00,Wunderground v.1.15,2013-01-16 10:05:00,
2013-01-16 04:10:00,37.2,36.7,30.05,NW,304,2.0,4.0,98,0.00,,,0.00,Wunderground v.1.15,2013-01-16 10:10:00,
2013-01-16 04:15:00,37.2,36.7,30.05,NNW,340,3.0,4.0,98,0.00,,,0.00,Wunderground v.1.15,2013-01-16 10:15:00,
2013-01-16 04:20:00,37.2,36.7,30.04,NW,311,2.0,2.0,98,0.00,,,0.00,Wunderground v.1.15,2013-01-16 10:20:00,
2013-01-16 04:25:00,37.3,36.8,30.04,NNE,19,2.0,4.0,98,0.00,,,0.00,Wunderground v.1.15,2013-01-16 10:25:00,
2013-01-16 04:30:00,37.2,36.7,30.04,WNW,298,3.0,4.0,98,0.00,,,0.00,Wunderground v.1.15,2013-01-16 10:30:00,
2013-01-16 04:35:00,37.2,36.7,30.04,WNW,302,4.0,4.0,98,0.00,,,0.00,Wunderground v.1.15,2013-01-16 10:35:00,
2013-01-16 04:40:00,37.1,36.6,30.05,NW,318,3.0,3.0,98,0.00,,,0.00,Wunderground v.1.15,2013-01-16 10:40:00,
2013-01-16 04:45:00,37.1,36.6,30.04,North,360,3.0,3.0,98,0.00,,,0.00,Wunderground v.1.15,2013-01-16 10:45:00,
2013-01-16 04:55:00,37.1,36.6,30.05,NW,304,3.0,4.0,98,0.00,,,0.00,Wunderground v.1.15,2013-01-16 10:55:00,
2013-01-16 05:00:00,37.1,36.6,30.03,NW,321,3.0,3.0,98,0.00,,,0.00,Wunderground v.1.15,2013-01-16 11:00:00,
2013-01-16 05:05:00,37.2,36.7,30.03,WNW,288,3.0,4.0,98,0.00,,,0.00,Wunderground v.1.15,2013-01-16 11:05:00,
2013-01-16 05:10:00,37.2,36.7,30.04,NW,309,2.0,3.0,98,0.00,,,0.00,Wunderground v.1.15,2013-01-16 11:10:00,
2013-01-16 05:15:00,37.1,36.3,30.05,WNW,290,3.0,4.0,97,0.00,,,0.00,Wunderground v.1.15,2013-01-16 11:15:00,
2013-01-16 05:20:00,37.1,36.3,30.05,NW,307,3.0,3.0,97,0.00,,,0.00,Wunderground v.1.15,2013-01-16 11:20:00,
2013-01-16 05:25:00,37.2,36.4,30.05,NW,316,2.0,4.0,97,0.00,,,0.01,Wunderground v.1.15,2013-01-16 11:25:00,
2013-01-16 05:30:00,37.1,36.3,30.06,WNW,299,3.0,3.0,97,0.00,,,0.01,Wunderground v.1.15,2013-01-16 11:30:00,
2013-01-16 05:35:00,37.1,36.3,30.06,NNW,328,3.0,3.0,97,0.00,,,0.01,Wunderground v.1.15,2013-01-16 11:35:00,
2013-01-16 05:40:00,37.1,36.3,30.06,NW,304,3.0,3.0,97,0.00,,,0.01,Wunderground v.1.15,2013-01-16 11:40:00,
2013-01-16 05:45:00,37.0,36.2,30.06,NW,316,3.0,3.0,97,0.00,,,0.01,Wunderground v.1.15,2013-01-16 11:45:00,
2013-01-16 05:50:00,37.0,36.2,30.05,NW,311,4.0,4.0,97,0.00,,,0.01,Wunderground v.1.15,2013-01-16 11:50:00,
2013-01-16 05:55:00,37.1,36.3,30.05,WNW,293,4.0,4.0,97,0.00,,,0.01,Wunderground v.1.15,2013-01-16 11:55:00,
2013-01-16 06:00:00,37.1,36.3,30.06,NW,318,3.0,3.0,97,0.00,,,0.01,Wunderground v.1.15,2013-01-16 12:00:00,
2013-01-16 06:05:00,37.1,36.3,30.06,WNW,300,2.0,5.0,97,0.00,,,0.01,Wunderground v.1.15,2013-01-16 12:05:00,
2013-01-16 06:10:00,37.1,36.1,30.07,NNW,328,3.0,5.0,96,0.00,,,0.01,Wunderground v.1.15,2013-01-16 12:10:00,
2013-01-16 06:15:00,37.2,36.4,30.07,WNW,297,3.0,5.0,97,0.00,,,0.01,Wunderground v.1.15,2013-01-16 12:15:00,
2013-01-16 06:20:00,37.1,36.3,30.06,WNW,297,3.0,8.0,97,0.00,,,0.02,Wunderground v.1.15,2013-01-16 12:20:00,
2013-01-16 06:30:00,37.0,36.2,30.06,NW,308,3.0,3.0,97,0.00,,,0.02,Wunderground v.1.15,2013-01-16 12:30:00,
2013-01-16 06:35:00,36.9,36.1,30.07,NW,310,3.0,3.0,97,0.00,,,0.02,Wunderground v.1.15,2013-01-16 12:35:00,
2013-01-16 06:40:00,36.9,36.1,30.07,WNW,284,3.0,3.0,97,0.00,,,0.02,Wunderground v.1.15,2013-01-16 12:40:00,
2013-01-16 06:45:00,36.8,35.8,30.08,NNW,347,3.0,3.0,96,0.00,,,0.02,Wunderground v.1.15,2013-01-16 12:45:00,
2013-01-16 06:55:00,36.9,36.1,30.08,WSW,256,3.0,4.0,97,0.00,,,0.02,Wunderground v.1.15,2013-01-16 12:55:00,
2013-01-16 07:00:00,36.9,36.1,30.08,WNW,300,3.0,3.0,97,0.00,,,0.02,Wunderground v.1.15,2013-01-16 13:00:00,
2013-01-16 07:05:00,36.8,36.0,30.09,West,270,3.0,3.0,97,0.00,,,0.02,Wunderground v.1.15,2013-01-16 13:05:00,
2013-01-16 07:15:00,36.7,35.7,30.09,NW,304,4.0,8.0,96,0.00,,,0.02,Wunderground v.1.15,2013-01-16 13:15:00,
2013-01-16 07:20:00,36.7,35.7,30.09,WNW,290,5.0,6.0,96,0.00,,,0.02,Wunderground v.1.15,2013-01-16 13:20:00,
2013-01-16 07:25:00,36.7,35.7,30.10,WNW,297,5.0,6.0,96,0.22,,,0.04,Wunderground v.1.15,2013-01-16 13:25:00,
2013-01-16 07:30:00,36.6,35.6,30.11,WNW,291,4.0,5.0,96,0.09,,,0.04,Wunderground v.1.15,2013-01-16 13:30:00,
2013-01-16 07:35:00,36.6,35.6,30.11,NW,306,5.0,5.0,96,0.05,,,0.04,Wunderground v.1.15,2013-01-16 13:35:00,
2013-01-16 07:40:00,36.6,35.6,30.11,North,356,5.0,5.0,96,0.04,,,0.04,Wunderground v.1.15,2013-01-16 13:40:00,
2013-01-16 07:45:00,36.7,35.7,30.11,NW,318,3.0,5.0,96,0.00,,,0.05,Wunderground v.1.15,2013-01-16 13:45:00,
2013-01-16 07:50:00,36.7,35.9,30.11,WNW,294,2.0,3.0,97,0.20,,,0.06,Wunderground v.1.15,2013-01-16 13:50:00,
2013-01-16 07:55:00,36.6,35.8,30.11,WNW,293,3.0,6.0,97,0.09,,,0.07,Wunderground v.1.15,2013-01-16 13:55:00,
2013-01-16 08:00:00,36.5,35.7,30.11,WNW,288,3.0,4.0,97,0.09,,,0.07,Wunderground v.1.15,2013-01-16 14:00:00,
2013-01-16 08:05:00,36.5,35.7,30.12,WSW,253,4.0,4.0,97,0.05,,,0.07,Wunderground v.1.15,2013-01-16 14:05:00,
2013-01-16 08:10:00,36.5,35.7,30.13,NW,322,3.0,3.0,97,0.04,,,0.08,Wunderground v.1.15,2013-01-16 14:10:00,
2013-01-16 08:15:00,36.5,35.7,30.12,NNW,340,4.0,4.0,97,0.04,,,0.08,Wunderground v.1.15,2013-01-16 14:15:00,
2013-01-16 08:20:00,36.5,35.7,30.11,WNW,291,3.0,4.0,97,0.07,,,0.09,Wunderground v.1.15,2013-01-16 14:20:00,
2013-01-16 08:25:00,36.5,35.7,30.12,WNW,297,2.0,4.0,97,0.07,,,0.09,Wunderground v.1.15,2013-01-16 14:25:00,
2013-01-16 08:30:00,36.5,35.7,30.13,WNW,287,3.0,5.0,97,0.05,,,0.09,Wunderground v.1.15,2013-01-16 14:30:00,
2013-01-16 08:35:00,36.5,35.7,30.14,WNW,284,4.0,7.0,97,0.04,,,0.09,Wunderground v.1.15,2013-01-16 14:35:00,
2013-01-16 08:40:00,36.5,35.7,30.13,North,1,4.0,4.0,97,0.00,,,0.09,Wunderground v.1.15,2013-01-16 14:40:00,
2013-01-16 08:45:00,36.4,35.6,30.14,WNW,301,4.0,7.0,97,0.00,,,0.10,Wunderground v.1.15,2013-01-16 14:45:00,
2013-01-16 08:50:00,36.4,35.6,30.14,NW,304,5.0,5.0,97,0.00,,,0.10,Wunderground v.1.15,2013-01-16 14:50:00,
2013-01-16 08:55:00,36.5,35.7,30.14,NNW,328,4.0,5.0,97,0.00,,,0.10,Wunderground v.1.15,2013-01-16 14:55:00,
2013-01-16 09:00:00,36.5,35.7,30.14,WNW,293,4.0,6.0,97,0.05,,,0.11,Wunderground v.1.15,2013-01-16 15:00:00,
2013-01-16 09:05:00,36.5,35.7,30.13,NW,319,4.0,6.0,97,0.11,,,0.12,Wunderground v.1.15,2013-01-16 15:05:00,
2013-01-16 09:10:00,36.5,35.7,30.13,NW,326,4.0,4.0,97,0.07,,,0.12,Wunderground v.1.15,2013-01-16 15:10:00,
2013-01-16 09:15:00,36.7,35.9,30.13,NNW,332,3.0,4.0,97,0.04,,,0.12,Wunderground v.1.15,2013-01-16 15:15:00,
2013-01-16 09:20:00,36.7,35.9,30.14,WNW,300,3.0,3.0,97,0.00,,,0.12,Wunderground v.1.15,2013-01-16 15:20:00,
2013-01-16 09:25:00,36.8,36.3,30.14,NNW,330,2.0,8.0,98,0.00,,,0.13,Wunderground v.1.15,2013-01-16 15:25:00,
2013-01-16 09:30:00,36.6,35.8,30.14,NNW,338,3.0,6.0,97,0.00,,,0.13,Wunderground v.1.15,2013-01-16 15:30:00,
2013-01-16 09:35:00,36.5,35.7,30.14,NW,322,4.0,6.0,97,0.00,,,0.13,Wunderground v.1.15,2013-01-16 15:35:00,
2013-01-16 09:40:00,36.5,35.7,30.14,West,270,4.0,6.0,97,0.00,,,0.13,Wunderground v.1.15,2013-01-16 15:40:00,
2013-01-16 09:45:00,36.5,35.7,30.14,NW,326,4.0,6.0,97,0.00,,,0.13,Wunderground v.1.15,2013-01-16 15:45:00,
2013-01-16 09:50:00,36.5,35.7,30.14,NW,322,3.0,3.0,97,0.00,,,0.13,Wunderground v.1.15,2013-01-16 15:50:00,
2013-01-16 09:55:00,36.7,35.9,30.14,NNW,337,3.0,3.0,97,0.00,,,0.13,Wunderground v.1.15,2013-01-16 15:55:00,
2013-01-16 10:00:00,36.8,36.0,30.13,NNW,328,3.0,3.0,97,0.00,,,0.13,Wunderground v.1.15,2013-01-16 16:00:00,
2013-01-16 10:05:00,36.8,36.0,30.14,WNW,293,3.0,8.0,97,0.00,,,0.13,Wunderground v.1.15,2013-01-16 16:05:00,
2013-01-16 10:10:00,36.8,36.0,30.14,WNW,290,3.0,3.0,97,0.00,,,0.13,Wunderground v.1.15,2013-01-16 16:10:00,
2013-01-16 10:15:00,36.8,36.0,30.14,NW,326,3.0,3.0,97,0.00,,,0.13,Wunderground v.1.15,2013-01-16 16:15:00,
2013-01-16 10:20:00,36.9,36.1,30.14,WNW,300,2.0,4.0,97,0.00,,,0.13,Wunderground v.1.15,2013-01-16 16:20:00,
2013-01-16 10:25:00,36.9,36.1,30.14,NW,318,3.0,4.0,97,0.00,,,0.13,Wunderground v.1.15,2013-01-16 16:25:00,
2013-01-16 10:30:00,36.9,36.1,30.14,WNW,288,4.0,4.0,97,0.00,,,0.13,Wunderground v.1.15,2013-01-16 16:30:00,
2013-01-16 10:35:00,36.9,36.1,30.13,NNW,338,3.0,4.0,97,0.00,,,0.13,Wunderground v.1.15,2013-01-16 16:35:00,
2013-01-16 10:45:00,37.0,36.2,30.13,WNW,291,3.0,4.0,97,0.00,,,0.13,Wunderground v.1.15,2013-01-16 16:45:00,
2013-01-16 10:50:00,37.1,36.3,30.14,West,279,3.0,3.0,97,0.00,,,0.13,Wunderground v.1.15,2013-01-16 16:50:00,
2013-01-16 10:55:00,37.1,36.3,30.14,WNW,299,2.0,3.0,97,0.00,,,0.13,Wunderground v.1.15,2013-01-16 16:55:00,
2013-01-16 11:00:00,37.2,36.4,30.14,WNW,296,3.0,3.0,97,0.00,,,0.13,Wunderground v.1.15,2013-01-16 17:00:00,
2013-01-16 11:10:00,37.3,36.5,30.14,WNW,293,3.0,4.0,97,0.00,,,0.13,Wunderground v.1.15,2013-01-16 17:10:00,
2013-01-16 11:15:00,37.2,36.4,30.13,NNW,342,3.0,4.0,97,0.00,,,0.13,Wunderground v.1.15,2013-01-16 17:15:00,
2013-01-16 11:20:00,37.1,36.3,30.13,West,274,4.0,4.0,97,0.00,,,0.13,Wunderground v.1.15,2013-01-16 17:20:00,
2013-01-16 11:25:00,37.2,36.4,30.13,NNW,328,3.0,4.0,97,0.00,,,0.13,Wunderground v.1.15,2013-01-16 17:25:00,
2013-01-16 11:30:00,37.1,36.3,30.12,North,349,3.0,4.0,97,0.00,,,0.14,Wunderground v.1.15,2013-01-16 17:30:00,
2013-01-16 11:35:00,37.1,36.3,30.11,NW,311,3.0,4.0,97,0.00,,,0.14,Wunderground v.1.15,2013-01-16 17:35:00,
2013-01-16 11:40:00,37.1,36.3,30.11,WNW,298,4.0,4.0,97,0.00,,,0.14,Wunderground v.1.15,2013-01-16 17:40:00,
2013-01-16 11:45:00,37.1,36.3,30.11,West,277,3.0,4.0,97,0.00,,,0.14,Wunderground v.1.15,2013-01-16 17:45:00,
2013-01-16 11:50:00,37.1,36.3,30.11,NNE,15,3.0,3.0,97,0.00,,,0.14,Wunderground v.1.15,2013-01-16 17:50:00,
2013-01-16 11:55:00,37.2,36.4,30.11,NNW,333,3.0,5.0,97,0.00,,,0.14,Wunderground v.1.15,2013-01-16 17:55:00,
2013-01-16 12:00:00,37.3,36.5,30.11,NNW,328,4.0,4.0,97,0.00,,,0.14,Wunderground v.1.15,2013-01-16 18:00:00,
2013-01-16 12:05:00,37.4,36.6,30.12,WNW,295,4.0,4.0,97,0.00,,,0.14,Wunderground v.1.15,2013-01-16 18:05:00,
2013-01-16 12:15:00,37.5,36.7,30.11,NNW,328,2.0,6.0,97,0.00,,,0.14,Wunderground v.1.15,2013-01-16 18:15:00,
2013-01-16 12:20:00,37.5,36.7,30.11,WNW,285,3.0,3.0,97,0.00,,,0.14,Wunderground v.1.15,2013-01-16 18:20:00,
2013-01-16 12:25:00,37.5,36.7,30.11,NNW,334,4.0,4.0,97,0.00,,,0.14,Wunderground v.1.15,2013-01-16 18:25:00,
2013-01-16 12:30:00,37.4,36.4,30.11,NNW,333,4.0,4.0,96,0.00,,,0.14,Wunderground v.1.15,2013-01-16 18:30:00,
2013-01-16 12:35:00,37.3,36.3,30.10,WNW,294,3.0,4.0,96,0.00,,,0.14,Wunderground v.1.15,2013-01-16 18:35:00,
2013-01-16 12:40:00,37.3,36.3,30.10,North,359,3.0,3.0,96,0.00,,,0.14,Wunderground v.1.15,2013-01-16 18:40:00,
2013-01-16 12:45:00,37.4,36.4,30.09,NW,312,3.0,3.0,96,0.00,,,0.14,Wunderground v.1.15,2013-01-16 18:45:00,
2013-01-16 12:50:00,37.4,36.4,30.09,NW,311,3.0,3.0,96,0.00,,,0.14,Wunderground v.1.15,2013-01-16 18:50:00,
2013-01-16 12:55:00,37.5,36.5,30.09,WNW,294,4.0,4.0,96,0.00,,,0.14,Wunderground v.1.15,2013-01-16 18:55:00,
2013-01-16 13:00:00,37.6,36.6,30.08,NW,304,3.0,5.0,96,0.00,,,0.14,Wunderground v.1.15,2013-01-16 19:00:00,
2013-01-16 13:05:00,37.7,36.7,30.09,WNW,290,3.0,6.0,96,0.00,,,0.14,Wunderground v.1.15,2013-01-16 19:05:00,
2013-01-16 13:10:00,37.8,36.8,30.09,NW,322,3.0,4.0,96,0.00,,,0.14,Wunderground v.1.15,2013-01-16 19:10:00,
2013-01-16 13:15:00,37.8,36.8,30.09,NW,304,4.0,8.0,96,0.00,,,0.14,Wunderground v.1.15,2013-01-16 19:15:00,
2013-01-16 13:20:00,37.8,36.5,30.09,WNW,285,5.0,5.0,95,0.00,,,0.14,Wunderground v.1.15,2013-01-16 19:20:00,
2013-01-16 13:25:00,37.9,36.9,30.09,WNW,294,5.0,5.0,96,0.00,,,0.14,Wunderground v.1.15,2013-01-16 19:25:00,
2013-01-16 13:30:00,37.8,36.5,30.08,WNW,299,6.0,6.0,95,0.00,,,0.14,Wunderground v.1.15,2013-01-16 19:30:00,
2013-01-16 13:35:00,37.9,36.6,30.08,WNW,297,6.0,12.0,95,0.00,,,0.14,Wunderground v.1.15,2013-01-16 19:35:00,
2013-01-16 13:40:00,37.8,36.5,30.08,NW,322,5.0,6.0,95,0.00,,,0.14,Wunderground v.1.15,2013-01-16 19:40:00,
2013-01-16 13:45:00,37.8,36.5,30.08,West,273,5.0,6.0,95,0.00,,,0.14,Wunderground v.1.15,2013-01-16 19:45:00,
2013-01-16 13:50:00,37.8,36.5,30.08,SW,229,4.0,5.0,95,0.00,,,0.14,Wunderground v.1.15,2013-01-16 19:50:00,
2013-01-16 13:55:00,37.7,36.4,30.08,NNW,342,6.0,6.0,95,0.00,,,0.14,Wunderground v.1.15,2013-01-16 19:55:00,
2013-01-16 14:00:00,37.7,36.4,30.08,NW,326,5.0,9.0,95,0.00,,,0.14,Wunderground v.1.15,2013-01-16 20:00:00,
2013-01-16 14:05:00,37.7,36.7,30.08,NW,316,4.0,9.0,96,0.00,,,0.14,Wunderground v.1.15,2013-01-16 20:05:00,
2013-01-16 14:15:00,37.6,36.6,30.08,North,352,5.0,5.0,96,0.00,,,0.14,Wunderground v.1.15,2013-01-16 20:15:00,
2013-01-16 14:20:00,37.6,36.6,30.08,NNW,336,4.0,6.0,96,0.00,,,0.14,Wunderground v.1.15,2013-01-16 20:20:00,
2013-01-16 14:25:00,37.5,36.5,30.08,WNW,296,5.0,6.0,96,0.00,,,0.14,Wunderground v.1.15,2013-01-16 20:25:00,
2013-01-16 14:35:00,37.3,36.5,30.08,West,279,5.0,5.0,97,0.00,,,0.14,Wunderground v.1.15,2013-01-16 20:35:00,
2013-01-16 14:40:00,37.2,36.4,30.08,WNW,298,5.0,6.0,97,0.00,,,0.14,Wunderground v.1.15,2013-01-16 20:40:00,
2013-01-16 14:45:00,37.1,36.3,30.08,WNW,301,5.0,6.0,97,0.00,,,0.14,Wunderground v.1.15,2013-01-16 20:45:00,
2013-01-16 14:50:00,37.1,36.3,30.08,WNW,301,5.0,5.0,97,0.00,,,0.14,Wunderground v.1.15,2013-01-16 20:50:00,
2013-01-16 14:55:00,37.1,36.3,30.08,NNW,332,5.0,6.0,97,0.00,,,0.14,Wunderground v.1.15,2013-01-16 20:55:00,
2013-01-16 15:00:00,37.0,36.2,30.09,North,9,4.0,6.0,97,0.00,,,0.14,Wunderground v.1.15,2013-01-16 21:00:00,
2013-01-16 15:05:00,37.1,36.3,30.10,West,266,4.0,6.0,97,0.00,,,0.14,Wunderground v.1.15,2013-01-16 21:05:00,
2013-01-16 15:10:00,37.1,36.1,30.10,NW,304,4.0,4.0,96,0.00,,,0.14,Wunderground v.1.15,2013-01-16 21:10:00,
2013-01-16 15:15:00,37.1,36.1,30.11,WNW,297,4.0,4.0,96,0.00,,,0.14,Wunderground v.1.15,2013-01-16 21:15:00,
2013-01-16 15:25:00,37.2,35.9,30.11,WNW,293,4.0,7.0,95,0.00,,,0.14,Wunderground v.1.15,2013-01-16 21:25:00,
2013-01-16 15:30:00,37.2,35.9,30.09,NW,321,5.0,10.0,95,0.00,,,0.14,Wunderground v.1.15,2013-01-16 21:30:00,
2013-01-16 15:35:00,37.3,36.0,30.10,NNW,336,5.0,10.0,95,0.00,,,0.14,Wunderground v.1.15,2013-01-16 21:35:00,
2013-01-16 15:40:00,37.3,36.0,30.10,WNW,288,4.0,4.0,95,0.00,,,0.14,Wunderground v.1.15,2013-01-16 21:40:00,
2013-01-16 15:45:00,37.3,36.0,30.11,North,356,4.0,6.0,95,0.00,,,0.14,Wunderground v.1.15,2013-01-16 21:45:00,
2013-01-16 15:50:00,37.3,36.0,30.10,WNW,294,4.0,4.0,95,0.00,,,0.14,Wunderground v.1.15,2013-01-16 21:50:00,
2013-01-16 15:55:00,37.4,36.1,30.11,WNW,293,4.0,4.0,95,0.00,,,0.14,Wunderground v.1.15,2013-01-16 21:55:00,
2013-01-16 16:00:00,37.3,36.0,30.10,NW,323,4.0,4.0,95,0.00,,,0.14,Wunderground v.1.15,2013-01-16 22:00:00,
2013-01-16 16:05:00,37.3,36.0,30.11,North,5,4.0,4.0,95,0.00,,,0.14,Wunderground v.1.15,2013-01-16 22:05:00,
2013-01-16 16:10:00,37.3,36.0,30.11,WNW,283,4.0,4.0,95,0.00,,,0.14,Wunderground v.1.15,2013-01-16 22:10:00,
2013-01-16 16:15:00,37.3,36.0,30.11,NW,324,4.0,4.0,95,0.00,,,0.14,Wunderground v.1.15,2013-01-16 22:15:00,
2013-01-16 16:20:00,37.3,36.0,30.11,NW,322,4.0,4.0,95,0.00,,,0.14,Wunderground v.1.15,2013-01-16 22:20:00,
2013-01-16 16:30:00,37.4,36.1,30.11,NW,304,3.0,3.0,95,0.00,,,0.14,Wunderground v.1.15,2013-01-16 22:30:00,
2013-01-16 16:35:00,37.4,36.1,30.11,WNW,287,3.0,4.0,95,0.00,,,0.14,Wunderground v.1.15,2013-01-16 22:35:00,
2013-01-16 16:40:00,37.4,36.1,30.11,WNW,288,3.0,3.0,95,0.00,,,0.14,Wunderground v.1.15,2013-01-16 22:40:00,
2013-01-16 16:45:00,37.5,36.5,30.11,West,278,2.0,3.0,96,0.00,,,0.14,Wunderground v.1.15,2013-01-16 22:45:00,
2013-01-16 16:50:00,37.5,36.5,30.11,WNW,293,2.0,2.0,96,0.00,,,0.14,Wunderground v.1.15,2013-01-16 22:50:00,
2013-01-16 16:55:00,37.6,36.6,30.12,West,271,2.0,2.0,96,0.00,,,0.14,Wunderground v.1.15,2013-01-16 22:55:00,
2013-01-16 17:00:00,37.6,36.3,30.12,WNW,289,2.0,2.0,95,0.00,,,0.14,Wunderground v.1.15,2013-01-16 23:00:00,
2013-01-16 17:05:00,37.6,36.3,30.11,WNW,294,2.0,4.0,95,0.00,,,0.14,Wunderground v.1.15,2013-01-16 23:05:00,
2013-01-16 17:10:00,37.5,36.2,30.11,NNW,337,2.0,3.0,95,0.00,,,0.14,Wunderground v.1.15,2013-01-16 23:10:00,
2013-01-16 17:15:00,37.5,36.2,30.11,WNW,290,3.0,3.0,95,0.00,,,0.14,Wunderground v.1.15,2013-01-16 23:15:00,
2013-01-16 17:20:00,37.5,36.2,30.12,WNW,294,2.0,2.0,95,0.00,,,0.14,Wunderground v.1.15,2013-01-16 23:20:00,
2013-01-16 17:25:00,37.5,35.9,30.12,NW,325,3.0,3.0,94,0.00,,,0.14,Wunderground v.1.15,2013-01-16 23:25:00,
2013-01-16 17:30:00,37.5,36.2,30.12,NW,316,2.0,2.0,95,0.00,,,0.14,Wunderground v.1.15,2013-01-16 23:30:00,
2013-01-16 17:35:00,37.5,35.9,30.12,NW,316,2.0,2.0,94,0.00,,,0.14,Wunderground v.1.15,2013-01-16 23:35:00,
2013-01-16 17:40:00,37.5,35.9,30.12,NW,326,2.0,2.0,94,0.00,,,0.14,Wunderground v.1.15,2013-01-16 23:40:00,
2013-01-16 17:45:00,37.5,35.9,30.12,NW,319,1.0,2.0,94,0.00,,,0.14,Wunderground v.1.15,2013-01-16 23:45:00,
2013-01-16 17:50:00,37.6,36.0,30.12,NW,313,1.0,1.0,94,0.00,,,0.14,Wunderground v.1.15,2013-01-16 23:50:00,
2013-01-16 17:55:00,37.6,36.3,30.12,WNW,295,1.0,3.0,95,0.00,,,0.14,Wunderground v.1.15,2013-01-16 23:55:00,
2013-01-16 18:00:00,37.5,35.9,30.13,NNW,345,1.0,2.0,94,0.00,,,0.14,Wunderground v.1.15,2013-01-17 00:00:00,
2013-01-16 18:05:00,37.5,35.9,30.13,NNW,330,1.0,2.0,94,0.00,,,0.14,Wunderground v.1.15,2013-01-17 00:05:00,
2013-01-16 18:10:00,37.4,35.8,30.13,NW,322,1.0,2.0,94,0.00,,,0.14,Wunderground v.1.15,2013-01-17 00:10:00,
2013-01-16 18:15:00,37.5,36.2,30.13,NW,311,1.0,2.0,95,0.00,,,0.14,Wunderground v.1.15,2013-01-17 00:15:00,
2013-01-16 18:20:00,37.5,36.2,30.13,NW,312,0.0,2.0,95,0.00,,,0.14,Wunderground v.1.15,2013-01-17 00:20:00,
2013-01-16 18:25:00,37.5,36.2,30.14,NW,326,1.0,2.0,95,0.00,,,0.14,Wunderground v.1.15,2013-01-17 00:25:00,
2013-01-16 18:30:00,37.5,36.2,30.14,North,349,1.0,2.0,95,0.00,,,0.14,Wunderground v.1.15,2013-01-17 00:30:00,
2013-01-16 18:35:00,37.6,36.3,30.14,NNW,338,2.0,2.0,95,0.00,,,0.14,Wunderground v.1.15,2013-01-17 00:35:00,
2013-01-16 18:40:00,37.6,36.0,30.15,WNW,285,2.0,2.0,94,0.00,,,0.14,Wunderground v.1.15,2013-01-17 00:40:00,
2013-01-16 18:45:00,37.6,36.3,30.15,WNW,291,2.0,2.0,95,0.00,,,0.14,Wunderground v.1.15,2013-01-17 00:45:00,
2013-01-16 18:55:00,37.7,36.4,30.15,West,276,2.0,2.0,95,0.00,,,0.14,Wunderground v.1.15,2013-01-17 00:55:00,
2013-01-16 19:00:00,37.8,36.5,30.16,NNW,347,2.0,4.0,95,0.00,,,0.14,Wunderground v.1.15,2013-01-17 01:00:00,
2013-01-16 19:05:00,37.9,36.3,30.15,NNW,333,3.0,4.0,94,0.00,,,0.14,Wunderground v.1.15,2013-01-17 01:05:00,
2013-01-16 19:10:00,37.9,36.6,30.15,WNW,290,3.0,5.0,95,0.00,,,0.14,Wunderground v.1.15,2013-01-17 01:10:00,
2013-01-16 19:15:00,37.8,36.5,30.15,West,267,3.0,5.0,95,0.00,,,0.14,Wunderground v.1.15,2013-01-17 01:15:00,
2013-01-16 19:20:00,37.7,36.4,30.15,WNW,290,3.0,4.0,95,0.00,,,0.14,Wunderground v.1.15,2013-01-17 01:20:00,
2013-01-16 19:25:00,37.6,36.6,30.15,WNW,295,3.0,4.0,96,0.00,,,0.14,Wunderground v.1.15,2013-01-17 01:25:00,
2013-01-16 19:30:00,37.5,36.5,30.15,West,273,2.0,2.0,96,0.00,,,0.14,Wunderground v.1.15,2013-01-17 01:30:00,
2013-01-16 19:35:00,37.5,36.7,30.16,NW,317,2.0,4.0,97,0.00,,,0.14,Wunderground v.1.15,2013-01-17 01:35:00,
2013-01-16 19:40:00,37.5,36.7,30.16,WNW,283,2.0,2.0,97,0.00,,,0.14,Wunderground v.1.15,2013-01-17 01:40:00,
2013-01-16 19:45:00,37.5,36.7,30.16,WNW,291,2.0,6.0,97,0.00,,,0.14,Wunderground v.1.15,2013-01-17 01:45:00,
2013-01-16 19:50:00,37.5,36.7,30.16,WNW,295,3.0,3.0,97,0.00,,,0.14,Wunderground v.1.15,2013-01-17 01:50:00,
2013-01-16 19:55:00,37.5,36.7,30.16,WNW,290,3.0,5.0,97,0.00,,,0.14,Wunderground v.1.15,2013-01-17 01:55:00,
2013-01-16 20:00:00,37.6,37.1,30.16,WNW,299,2.0,2.0,98,0.00,,,0.14,Wunderground v.1.15,2013-01-17 02:00:00,
2013-01-16 20:05:00,37.6,37.1,30.16,WNW,289,3.0,4.0,98,0.00,,,0.14,Wunderground v.1.15,2013-01-17 02:05:00,
2013-01-16 20:10:00,37.7,37.2,30.16,WNW,285,3.0,3.0,98,0.00,,,0.14,Wunderground v.1.15,2013-01-17 02:10:00,
2013-01-16 20:15:00,37.7,36.9,30.16,WNW,297,3.0,4.0,97,0.00,,,0.14,Wunderground v.1.15,2013-01-17 02:15:00,
2013-01-16 20:20:00,37.7,36.9,30.17,NW,319,3.0,3.0,97,0.00,,,0.14,Wunderground v.1.15,2013-01-17 02:20:00,
2013-01-16 20:25:00,37.8,37.3,30.17,WNW,293,3.0,3.0,98,0.00,,,0.14,Wunderground v.1.15,2013-01-17 02:25:00,
2013-01-16 20:30:00,37.9,37.4,30.17,WNW,283,3.0,4.0,98,0.00,,,0.14,Wunderground v.1.15,2013-01-17 02:30:00,
2013-01-16 20:35:00,38.0,37.5,30.17,WNW,290,3.0,4.0,98,0.00,,,0.14,Wunderground v.1.15,2013-01-17 02:35:00,
2013-01-16 20:40:00,38.1,37.6,30.17,WNW,293,3.0,3.0,98,0.00,,,0.14,Wunderground v.1.15,2013-01-17 02:40:00,
2013-01-16 20:45:00,38.2,37.7,30.17,West,277,3.0,3.0,98,0.00,,,0.14,Wunderground v.1.15,2013-01-17 02:45:00,
2013-01-16 20:50:00,38.2,37.7,30.17,WNW,291,3.0,4.0,98,0.00,,,0.14,Wunderground v.1.15,2013-01-17 02:50:00,
2013-01-16 20:55:00,38.2,37.4,30.17,WNW,291,3.0,4.0,97,0.00,,,0.14,Wunderground v.1.15,2013-01-17 02:55:00,
2013-01-16 21:00:00,38.3,37.5,30.17,WNW,284,4.0,7.0,97,0.00,,,0.14,Wunderground v.1.15,2013-01-17 03:00:00,
2013-01-16 21:05:00,38.2,37.4,30.17,WNW,288,4.0,7.0,97,0.00,,,0.14,Wunderground v.1.15,2013-01-17 03:05:00,
2013-01-16 21:10:00,38.3,37.5,30.17,West,273,4.0,4.0,97,0.00,,,0.14,Wunderground v.1.15,2013-01-17 03:10:00,
2013-01-16 21:15:00,38.3,37.5,30.17,WNW,285,4.0,4.0,97,0.00,,,0.14,Wunderground v.1.15,2013-01-17 03:15:00,
2013-01-16 21:20:00,38.3,37.5,30.17,NW,321,4.0,4.0,97,0.00,,,0.14,Wunderground v.1.15,2013-01-17 03:20:00,
2013-01-16 21:25:00,38.3,37.5,30.17,WNW,294,3.0,5.0,97,0.00,,,0.14,Wunderground v.1.15,2013-01-17 03:25:00,
2013-01-16 21:30:00,38.3,37.5,30.17,WNW,294,3.0,3.0,97,0.00,,,0.14,Wunderground v.1.15,2013-01-17 03:30:00,
2013-01-16 21:35:00,38.3,37.5,30.17,WNW,294,4.0,7.0,97,0.00,,,0.14,Wunderground v.1.15,2013-01-17 03:35:00,
2013-01-16 21:40:00,38.3,37.5,30.17,WNW,287,4.0,4.0,97,0.00,,,0.14,Wunderground v.1.15,2013-01-17 03:40:00,
2013-01-16 21:45:00,38.3,37.5,30.17,WNW,294,5.0,5.0,97,0.00,,,0.14,Wunderground v.1.15,2013-01-17 03:45:00,
2013-01-16 21:50:00,38.3,37.5,30.17,WNW,290,6.0,6.0,97,0.00,,,0.14,Wunderground v.1.15,2013-01-17 03:50:00,
2013-01-16 21:55:00,38.3,37.5,30.17,West,281,6.0,6.0,97,0.00,,,0.14,Wunderground v.1.15,2013-01-17 03:55:00,
2013-01-16 22:00:00,38.3,37.5,30.17,NW,319,5.0,6.0,97,0.00,,,0.14,Wunderground v.1.15,2013-01-17 04:00:00,
2013-01-16 22:05:00,38.3,37.5,30.17,WNW,297,5.0,6.0,97,0.00,,,0.14,Wunderground v.1.15,2013-01-17 04:05:00,
2013-01-16 22:10:00,38.3,37.5,30.17,WNW,298,4.0,11.0,97,0.00,,,0.14,Wunderground v.1.15,2013-01-17 04:10:00,
2013-01-16 22:20:00,38.3,37.5,30.17,West,271,5.0,5.0,97,0.00,,,0.14,Wunderground v.1.15,2013-01-17 04:20:00,
2013-01-16 22:25:00,38.3,37.5,30.17,West,267,4.0,5.0,97,0.00,,,0.14,Wunderground v.1.15,2013-01-17 04:25:00,
2013-01-16 22:30:00,38.3,37.5,30.17,WNW,286,5.0,5.0,97,0.00,,,0.14,Wunderground v.1.15,2013-01-17 04:30:00,
2013-01-16 22:35:00,38.3,37.3,30.17,WNW,301,5.0,5.0,96,0.00,,,0.14,Wunderground v.1.15,2013-01-17 04:35:00,
2013-01-16 22:40:00,38.3,37.3,30.17,West,277,4.0,4.0,96,0.00,,,0.14,Wunderground v.1.15,2013-01-17 04:40:00,
2013-01-16 22:45:00,38.3,37.3,30.17,West,266,5.0,5.0,96,0.00,,,0.14,Wunderground v.1.15,2013-01-17 04:45:00,
2013-01-16 22:50:00,38.2,37.2,30.17,WNW,284,5.0,7.0,96,0.00,,,0.14,Wunderground v.1.15,2013-01-17 04:50:00,
2013-01-16 22:55:00,38.1,37.1,30.17,WNW,297,6.0,7.0,96,0.00,,,0.14,Wunderground v.1.15,2013-01-17 04:55:00,
2013-01-16 23:00:00,38.0,37.0,30.17,WNW,294,5.0,9.0,96,0.00,,,0.14,Wunderground v.1.15,2013-01-17 05:00:00,
2013-01-16 23:05:00,37.9,36.9,30.17,WNW,284,5.0,9.0,96,0.00,,,0.14,Wunderground v.1.15,2013-01-17 05:05:00,
2013-01-16 23:10:00,37.8,36.8,30.17,WNW,295,4.0,5.0,96,0.00,,,0.14,Wunderground v.1.15,2013-01-17 05:10:00,
2013-01-16 23:15:00,37.8,36.8,30.17,West,281,5.0,5.0,96,0.00,,,0.14,Wunderground v.1.15,2013-01-17 05:15:00,
2013-01-16 23:20:00,37.7,36.7,30.17,WNW,288,5.0,5.0,96,0.00,,,0.14,Wunderground v.1.15,2013-01-17 05:20:00,
2013-01-16 23:25:00,37.7,36.7,30.17,WNW,297,4.0,5.0,96,0.00,,,0.14,Wunderground v.1.15,2013-01-17 05:25:00,
2013-01-16 23:30:00,37.8,37.0,30.17,WNW,287,4.0,4.0,97,0.00,,,0.14,Wunderground v.1.15,2013-01-17 05:30:00,
2013-01-16 23:35:00,37.9,37.1,30.17,West,264,3.0,4.0,97,0.00,,,0.14,Wunderground v.1.15,2013-01-17 05:35:00,
2013-01-16 23:40:00,37.9,37.1,30.17,West,279,3.0,3.0,97,0.00,,,0.14,Wunderground v.1.15,2013-01-17 05:40:00,
2013-01-16 23:45:00,37.9,37.1,30.17,WNW,294,3.0,3.0,97,0.00,,,0.14,Wunderground v.1.15,2013-01-17 05:45:00,
2013-01-16 23:50:00,38.1,37.3,30.17,WNW,288,3.0,3.0,97,0.00,,,0.14,Wunderground v.1.15,2013-01-17 05:50:00,
2013-01-16 23:55:00,38.2,37.4,30.17,WNW,290,3.0,6.0,97,0.00,,,0.14,Wunderground v.1.15,2013-01-17 05:55:00,